sensor_id;sensor_type;location;lat;lon;timestamp;P1;durP1;ratioP1;P2;durP2;ratioP2
6346;SDS011;3206;42.666;23.600;2024-01-06T00:00:58;0.67;;;0.67;;
6346;SDS011;3206;42.666;23.600;2024-01-06T00:03:24;0.60;;;0.60;;
6346;SDS011;3206;42.666;23.600;2024-01-06T00:05:51;0.77;;;0.77;;
6346;SDS011;3206;42.666;23.600;2024-01-06T00:08:19;0.50;;;0.50;;
6346;SDS011;3206;42.666;23.600;2024-01-06T00:10:45;0.60;;;0.60;;
6346;SDS011;3206;42.666;23.600;2024-01-06T00:13:12;0.53;;;0.53;;
6346;SDS011;3206;42.666;23.600;2024-01-06T00:15:38;0.30;;;0.30;;
6346;SDS011;3206;42.666;23.600;2024-01-06T00:18:05;0.30;;;0.30;;
6346;SDS011;3206;42.666;23.600;2024-01-06T00:20:31;0.40;;;0.40;;
6346;SDS011;3206;42.666;23.600;2024-01-06T00:22:58;1.73;;;1.70;;
6346;SDS011;3206;42.666;23.600;2024-01-06T00:25:26;1.07;;;1.07;;
6346;SDS011;3206;42.666;23.600;2024-01-06T00:27:52;0.30;;;0.30;;
6346;SDS011;3206;42.666;23.600;2024-01-06T00:30:19;1.67;;;1.57;;
6346;SDS011;3206;42.666;23.600;2024-01-06T00:32:45;0.50;;;0.50;;
6346;SDS011;3206;42.666;23.600;2024-01-06T00:35:12;2.37;;;2.20;;
6346;SDS011;3206;42.666;23.600;2024-01-06T00:37:39;0.80;;;0.80;;
6346;SDS011;3206;42.666;23.600;2024-01-06T00:40:05;1.43;;;1.33;;
6346;SDS011;3206;42.666;23.600;2024-01-06T00:42:34;0.77;;;0.63;;
6346;SDS011;3206;42.666;23.600;2024-01-06T00:45:00;0.93;;;0.93;;
6346;SDS011;3206;42.666;23.600;2024-01-06T00:47:27;2.73;;;1.77;;
6346;SDS011;3206;42.666;23.600;2024-01-06T00:49:53;0.50;;;0.50;;
6346;SDS011;3206;42.666;23.600;2024-01-06T00:52:20;0.70;;;0.70;;
6346;SDS011;3206;42.666;23.600;2024-01-06T00:54:46;1.77;;;1.43;;
6346;SDS011;3206;42.666;23.600;2024-01-06T00:57:13;0.47;;;0.47;;
6346;SDS011;3206;42.666;23.600;2024-01-06T00:59:41;0.83;;;0.83;;
6346;SDS011;3206;42.666;23.600;2024-01-06T01:02:07;0.40;;;0.40;;
6346;SDS011;3206;42.666;23.600;2024-01-06T01:04:34;0.83;;;0.83;;
6346;SDS011;3206;42.666;23.600;2024-01-06T01:07:01;1.70;;;1.27;;
6346;SDS011;3206;42.666;23.600;2024-01-06T01:09:28;0.40;;;0.40;;
6346;SDS011;3206;42.666;23.600;2024-01-06T01:11:54;3.43;;;1.50;;
6346;SDS011;3206;42.666;23.600;2024-01-06T01:14:21;0.60;;;0.60;;
6346;SDS011;3206;42.666;23.600;2024-01-06T01:16:49;0.67;;;0.67;;
6346;SDS011;3206;42.666;23.600;2024-01-06T01:19:15;0.43;;;0.43;;
6346;SDS011;3206;42.666;23.600;2024-01-06T01:21:42;1.37;;;1.37;;
6346;SDS011;3206;42.666;23.600;2024-01-06T01:24:09;0.60;;;0.60;;
6346;SDS011;3206;42.666;23.600;2024-01-06T01:26:35;0.70;;;0.70;;
6346;SDS011;3206;42.666;23.600;2024-01-06T01:29:02;1.60;;;1.50;;
6346;SDS011;3206;42.666;23.600;2024-01-06T01:31:28;0.43;;;0.43;;
6346;SDS011;3206;42.666;23.600;2024-01-06T01:33:56;0.63;;;0.63;;
6346;SDS011;3206;42.666;23.600;2024-01-06T01:36:23;0.87;;;0.87;;
6346;SDS011;3206;42.666;23.600;2024-01-06T01:38:49;1.47;;;1.43;;
6346;SDS011;3206;42.666;23.600;2024-01-06T01:41:16;6.03;;;2.00;;
6346;SDS011;3206;42.666;23.600;2024-01-06T01:43:42;0.80;;;0.80;;
6346;SDS011;3206;42.666;23.600;2024-01-06T01:46:09;1.03;;;1.03;;
6346;SDS011;3206;42.666;23.600;2024-01-06T01:48:35;1.07;;;1.07;;
6346;SDS011;3206;42.666;23.600;2024-01-06T01:51:02;0.70;;;0.70;;
6346;SDS011;3206;42.666;23.600;2024-01-06T01:53:29;0.77;;;0.77;;
6346;SDS011;3206;42.666;23.600;2024-01-06T01:55:56;0.97;;;0.97;;
6346;SDS011;3206;42.666;23.600;2024-01-06T01:58:23;0.70;;;0.70;;
6346;SDS011;3206;42.666;23.600;2024-01-06T02:00:49;0.70;;;0.70;;
6346;SDS011;3206;42.666;23.600;2024-01-06T02:03:16;6.33;;;1.20;;
6346;SDS011;3206;42.666;23.600;2024-01-06T02:05:43;2.00;;;1.90;;
6346;SDS011;3206;42.666;23.600;2024-01-06T02:08:11;0.70;;;0.70;;
6346;SDS011;3206;42.666;23.600;2024-01-06T02:10:37;1.33;;;1.33;;
6346;SDS011;3206;42.666;23.600;2024-01-06T02:13:07;1.57;;;0.93;;
6346;SDS011;3206;42.666;23.600;2024-01-06T02:15:34;3.87;;;2.03;;
6346;SDS011;3206;42.666;23.600;2024-01-06T02:18:00;0.80;;;0.80;;
6346;SDS011;3206;42.666;23.600;2024-01-06T02:20:27;2.57;;;2.47;;
6346;SDS011;3206;42.666;23.600;2024-01-06T02:22:56;1.37;;;1.30;;
6346;SDS011;3206;42.666;23.600;2024-01-06T02:25:25;1.13;;;1.13;;
6346;SDS011;3206;42.666;23.600;2024-01-06T02:27:52;1.07;;;1.07;;
6346;SDS011;3206;42.666;23.600;2024-01-06T02:30:18;0.70;;;0.70;;
6346;SDS011;3206;42.666;23.600;2024-01-06T02:32:45;0.57;;;0.57;;
6346;SDS011;3206;42.666;23.600;2024-01-06T02:35:11;0.53;;;0.53;;
6346;SDS011;3206;42.666;23.600;2024-01-06T02:37:38;0.53;;;0.53;;
6346;SDS011;3206;42.666;23.600;2024-01-06T02:40:07;1.73;;;1.63;;
6346;SDS011;3206;42.666;23.600;2024-01-06T02:42:33;0.60;;;0.60;;
6346;SDS011;3206;42.666;23.600;2024-01-06T02:45:00;2.00;;;1.80;;
6346;SDS011;3206;42.666;23.600;2024-01-06T02:47:26;1.20;;;1.10;;
6346;SDS011;3206;42.666;23.600;2024-01-06T02:49:53;0.87;;;0.87;;
6346;SDS011;3206;42.666;23.600;2024-01-06T02:52:20;1.17;;;1.17;;
6346;SDS011;3206;42.666;23.600;2024-01-06T02:54:47;0.73;;;0.73;;
6346;SDS011;3206;42.666;23.600;2024-01-06T02:57:15;1.13;;;1.13;;
6346;SDS011;3206;42.666;23.600;2024-01-06T02:59:42;0.67;;;0.67;;
6346;SDS011;3206;42.666;23.600;2024-01-06T03:02:08;0.50;;;0.50;;
6346;SDS011;3206;42.666;23.600;2024-01-06T03:04:35;0.70;;;0.70;;
6346;SDS011;3206;42.666;23.600;2024-01-06T03:07:02;0.50;;;0.50;;
6346;SDS011;3206;42.666;23.600;2024-01-06T03:09:28;1.50;;;0.80;;
6346;SDS011;3206;42.666;23.600;2024-01-06T03:11:55;0.47;;;0.47;;
6346;SDS011;3206;42.666;23.600;2024-01-06T03:14:23;0.37;;;0.37;;
6346;SDS011;3206;42.666;23.600;2024-01-06T03:16:49;1.43;;;1.37;;
6346;SDS011;3206;42.666;23.600;2024-01-06T03:19:16;0.30;;;0.30;;
6346;SDS011;3206;42.666;23.600;2024-01-06T03:21:42;0.40;;;0.40;;
6346;SDS011;3206;42.666;23.600;2024-01-06T03:24:09;0.40;;;0.40;;
6346;SDS011;3206;42.666;23.600;2024-01-06T03:26:35;0.40;;;0.40;;
6346;SDS011;3206;42.666;23.600;2024-01-06T03:29:02;0.40;;;0.40;;
6346;SDS011;3206;42.666;23.600;2024-01-06T03:31:30;0.30;;;0.30;;
6346;SDS011;3206;42.666;23.600;2024-01-06T03:33:57;0.40;;;0.40;;
6346;SDS011;3206;42.666;23.600;2024-01-06T03:36:23;0.50;;;0.50;;
6346;SDS011;3206;42.666;23.600;2024-01-06T03:38:50;0.60;;;0.60;;
6346;SDS011;3206;42.666;23.600;2024-01-06T03:41:16;0.30;;;0.30;;
6346;SDS011;3206;42.666;23.600;2024-01-06T03:43:43;0.30;;;0.30;;
6346;SDS011;3206;42.666;23.600;2024-01-06T03:46:10;0.50;;;0.50;;
6346;SDS011;3206;42.666;23.600;2024-01-06T03:48:38;0.43;;;0.43;;
6346;SDS011;3206;42.666;23.600;2024-01-06T03:51:05;0.70;;;0.70;;
6346;SDS011;3206;42.666;23.600;2024-01-06T03:53:32;0.40;;;0.40;;
6346;SDS011;3206;42.666;23.600;2024-01-06T03:55:59;0.50;;;0.50;;
6346;SDS011;3206;42.666;23.600;2024-01-06T03:58:25;0.40;;;0.40;;
6346;SDS011;3206;42.666;23.600;2024-01-06T04:00:52;0.90;;;0.90;;
6346;SDS011;3206;42.666;23.600;2024-01-06T04:03:18;0.40;;;0.40;;
6346;SDS011;3206;42.666;23.600;2024-01-06T04:05:47;0.50;;;0.50;;
6346;SDS011;3206;42.666;23.600;2024-01-06T04:08:14;0.60;;;0.60;;
6346;SDS011;3206;42.666;23.600;2024-01-06T04:10:40;0.87;;;0.87;;
6346;SDS011;3206;42.666;23.600;2024-01-06T04:13:08;0.30;;;0.30;;
6346;SDS011;3206;42.666;23.600;2024-01-06T04:15:34;0.40;;;0.40;;
6346;SDS011;3206;42.666;23.600;2024-01-06T04:18:01;0.37;;;0.37;;
6346;SDS011;3206;42.666;23.600;2024-01-06T04:20:28;0.40;;;0.40;;
6346;SDS011;3206;42.666;23.600;2024-01-06T04:22:56;0.40;;;0.40;;
6346;SDS011;3206;42.666;23.600;2024-01-06T04:25:23;0.40;;;0.40;;
6346;SDS011;3206;42.666;23.600;2024-01-06T04:27:49;0.40;;;0.40;;
6346;SDS011;3206;42.666;23.600;2024-01-06T04:30:16;0.40;;;0.40;;
6346;SDS011;3206;42.666;23.600;2024-01-06T04:32:42;0.70;;;0.70;;
6346;SDS011;3206;42.666;23.600;2024-01-06T04:35:09;0.80;;;0.80;;
6346;SDS011;3206;42.666;23.600;2024-01-06T04:37:36;0.40;;;0.40;;
6346;SDS011;3206;42.666;23.600;2024-01-06T04:40:04;0.40;;;0.40;;
6346;SDS011;3206;42.666;23.600;2024-01-06T04:42:31;0.60;;;0.60;;
6346;SDS011;3206;42.666;23.600;2024-01-06T04:44:57;0.80;;;0.80;;
6346;SDS011;3206;42.666;23.600;2024-01-06T04:47:24;1.10;;;0.67;;
6346;SDS011;3206;42.666;23.600;2024-01-06T04:49:51;0.57;;;0.57;;
6346;SDS011;3206;42.666;23.600;2024-01-06T04:52:18;0.47;;;0.47;;
6346;SDS011;3206;42.666;23.600;2024-01-06T04:54:44;0.70;;;0.70;;
6346;SDS011;3206;42.666;23.600;2024-01-06T04:57:12;0.60;;;0.60;;
6346;SDS011;3206;42.666;23.600;2024-01-06T04:59:39;0.30;;;0.30;;
6346;SDS011;3206;42.666;23.600;2024-01-06T05:02:06;2.53;;;2.10;;
6346;SDS011;3206;42.666;23.600;2024-01-06T05:04:32;1.47;;;1.00;;
6346;SDS011;3206;42.666;23.600;2024-01-06T05:06:59;0.70;;;0.70;;
6346;SDS011;3206;42.666;23.600;2024-01-06T05:09:25;0.63;;;0.63;;
6346;SDS011;3206;42.666;23.600;2024-01-06T05:11:52;0.40;;;0.40;;
6346;SDS011;3206;42.666;23.600;2024-01-06T05:14:20;1.37;;;1.33;;
6346;SDS011;3206;42.666;23.600;2024-01-06T05:16:46;1.40;;;1.40;;
6346;SDS011;3206;42.666;23.600;2024-01-06T05:19:13;2.10;;;1.97;;
6346;SDS011;3206;42.666;23.600;2024-01-06T05:21:44;2.00;;;1.90;;
6346;SDS011;3206;42.666;23.600;2024-01-06T05:24:11;1.00;;;1.00;;
6346;SDS011;3206;42.666;23.600;2024-01-06T05:26:37;1.13;;;1.13;;
6346;SDS011;3206;42.666;23.600;2024-01-06T05:29:04;1.57;;;1.47;;
6346;SDS011;3206;42.666;23.600;2024-01-06T05:31:32;1.07;;;1.07;;
6346;SDS011;3206;42.666;23.600;2024-01-06T05:33:58;0.50;;;0.50;;
6346;SDS011;3206;42.666;23.600;2024-01-06T05:36:25;1.33;;;1.23;;
6346;SDS011;3206;42.666;23.600;2024-01-06T05:38:52;0.30;;;0.30;;
6346;SDS011;3206;42.666;23.600;2024-01-06T05:41:18;1.03;;;1.03;;
6346;SDS011;3206;42.666;23.600;2024-01-06T05:43:45;0.97;;;0.97;;
6346;SDS011;3206;42.666;23.600;2024-01-06T05:46:11;0.73;;;0.73;;
6346;SDS011;3206;42.666;23.600;2024-01-06T05:48:39;0.40;;;0.40;;
6346;SDS011;3206;42.666;23.600;2024-01-06T05:51:06;2.73;;;1.47;;
6346;SDS011;3206;42.666;23.600;2024-01-06T05:53:33;1.33;;;1.23;;
6346;SDS011;3206;42.666;23.600;2024-01-06T05:55:59;2.23;;;2.03;;
6346;SDS011;3206;42.666;23.600;2024-01-06T05:58:26;0.90;;;0.90;;
6346;SDS011;3206;42.666;23.600;2024-01-06T06:00:52;1.20;;;1.20;;
6346;SDS011;3206;42.666;23.600;2024-01-06T06:03:19;5.10;;;1.57;;
6346;SDS011;3206;42.666;23.600;2024-01-06T06:05:47;2.93;;;2.73;;
6346;SDS011;3206;42.666;23.600;2024-01-06T06:08:13;3.70;;;2.50;;
6346;SDS011;3206;42.666;23.600;2024-01-06T06:10:40;1.63;;;1.53;;
6346;SDS011;3206;42.666;23.600;2024-01-06T06:13:17;0.67;;;0.67;;
6346;SDS011;3206;42.666;23.600;2024-01-06T06:15:43;0.33;;;0.33;;
6346;SDS011;3206;42.666;23.600;2024-01-06T06:18:10;1.13;;;1.13;;
6346;SDS011;3206;42.666;23.600;2024-01-06T06:20:36;1.13;;;1.13;;
6346;SDS011;3206;42.666;23.600;2024-01-06T06:23:05;1.07;;;1.07;;
6346;SDS011;3206;42.666;23.600;2024-01-06T06:25:31;0.73;;;0.73;;
6346;SDS011;3206;42.666;23.600;2024-01-06T06:27:59;0.40;;;0.40;;
6346;SDS011;3206;42.666;23.600;2024-01-06T06:30:25;0.30;;;0.30;;
6346;SDS011;3206;42.666;23.600;2024-01-06T06:32:52;0.70;;;0.70;;
6346;SDS011;3206;42.666;23.600;2024-01-06T06:35:18;0.70;;;0.70;;
6346;SDS011;3206;42.666;23.600;2024-01-06T06:37:45;0.43;;;0.43;;
6346;SDS011;3206;42.666;23.600;2024-01-06T06:40:13;1.90;;;0.93;;
6346;SDS011;3206;42.666;23.600;2024-01-06T06:42:39;0.40;;;0.40;;
6346;SDS011;3206;42.666;23.600;2024-01-06T06:45:06;0.30;;;0.30;;
6346;SDS011;3206;42.666;23.600;2024-01-06T06:47:33;0.40;;;0.40;;
6346;SDS011;3206;42.666;23.600;2024-01-06T06:50:00;0.50;;;0.50;;
6346;SDS011;3206;42.666;23.600;2024-01-06T06:52:26;0.70;;;0.70;;
6346;SDS011;3206;42.666;23.600;2024-01-06T06:54:53;0.43;;;0.43;;
6346;SDS011;3206;42.666;23.600;2024-01-06T06:57:21;0.40;;;0.40;;
6346;SDS011;3206;42.666;23.600;2024-01-06T06:59:48;0.50;;;0.50;;
6346;SDS011;3206;42.666;23.600;2024-01-06T07:02:14;0.47;;;0.47;;
6346;SDS011;3206;42.666;23.600;2024-01-06T07:04:41;0.77;;;0.60;;
6346;SDS011;3206;42.666;23.600;2024-01-06T07:07:08;1.33;;;1.23;;
6346;SDS011;3206;42.666;23.600;2024-01-06T07:09:35;2.10;;;1.97;;
6346;SDS011;3206;42.666;23.600;2024-01-06T07:12:02;0.53;;;0.53;;
6346;SDS011;3206;42.666;23.600;2024-01-06T07:14:30;0.60;;;0.60;;
6346;SDS011;3206;42.666;23.600;2024-01-06T07:16:56;1.10;;;1.10;;
6346;SDS011;3206;42.666;23.600;2024-01-06T07:19:23;1.00;;;0.90;;
6346;SDS011;3206;42.666;23.600;2024-01-06T07:21:50;0.60;;;0.60;;
6346;SDS011;3206;42.666;23.600;2024-01-06T07:24:16;1.00;;;0.83;;
6346;SDS011;3206;42.666;23.600;2024-01-06T07:26:43;0.60;;;0.60;;
6346;SDS011;3206;42.666;23.600;2024-01-06T07:29:09;0.57;;;0.57;;
6346;SDS011;3206;42.666;23.600;2024-01-06T07:31:37;0.77;;;0.77;;
6346;SDS011;3206;42.666;23.600;2024-01-06T07:34:04;1.23;;;1.13;;
6346;SDS011;3206;42.666;23.600;2024-01-06T07:36:31;0.83;;;0.83;;
6346;SDS011;3206;42.666;23.600;2024-01-06T07:38:57;3.90;;;2.57;;
6346;SDS011;3206;42.666;23.600;2024-01-06T07:41:24;1.87;;;1.77;;
6346;SDS011;3206;42.666;23.600;2024-01-06T07:43:50;2.27;;;2.07;;
6346;SDS011;3206;42.666;23.600;2024-01-06T07:46:17;1.43;;;1.43;;
6346;SDS011;3206;42.666;23.600;2024-01-06T07:48:45;2.17;;;1.57;;
6346;SDS011;3206;42.666;23.600;2024-01-06T07:51:11;4.03;;;3.20;;
6346;SDS011;3206;42.666;23.600;2024-01-06T07:53:38;1.73;;;1.63;;
6346;SDS011;3206;42.666;23.600;2024-01-06T07:56:05;6.27;;;4.60;;
6346;SDS011;3206;42.666;23.600;2024-01-06T07:58:31;6.63;;;5.83;;
6346;SDS011;3206;42.666;23.600;2024-01-06T08:00:58;4.07;;;3.70;;
6346;SDS011;3206;42.666;23.600;2024-01-06T08:03:25;3.13;;;2.40;;
6346;SDS011;3206;42.666;23.600;2024-01-06T08:05:52;0.97;;;0.97;;
6346;SDS011;3206;42.666;23.600;2024-01-06T08:08:19;1.40;;;1.40;;
6346;SDS011;3206;42.666;23.600;2024-01-06T08:10:46;4.47;;;4.13;;
6346;SDS011;3206;42.666;23.600;2024-01-06T08:13:12;3.47;;;3.03;;
6346;SDS011;3206;42.666;23.600;2024-01-06T08:15:39;5.23;;;4.47;;
6346;SDS011;3206;42.666;23.600;2024-01-06T08:18:05;5.47;;;4.97;;
6346;SDS011;3206;42.666;23.600;2024-01-06T08:20:32;9.87;;;6.97;;
6346;SDS011;3206;42.666;23.600;2024-01-06T08:23:00;8.93;;;7.43;;
6346;SDS011;3206;42.666;23.600;2024-01-06T08:25:27;1.97;;;1.87;;
6346;SDS011;3206;42.666;23.600;2024-01-06T08:27:53;2.47;;;1.77;;
6346;SDS011;3206;42.666;23.600;2024-01-06T08:30:20;3.43;;;3.07;;
6346;SDS011;3206;42.666;23.600;2024-01-06T08:32:48;1.17;;;1.10;;
6346;SDS011;3206;42.666;23.600;2024-01-06T08:35:15;1.77;;;1.67;;
6346;SDS011;3206;42.666;23.600;2024-01-06T08:37:42;1.90;;;1.80;;
6346;SDS011;3206;42.666;23.600;2024-01-06T08:40:10;2.87;;;2.50;;
6346;SDS011;3206;42.666;23.600;2024-01-06T08:42:37;2.10;;;2.00;;
6346;SDS011;3206;42.666;23.600;2024-01-06T08:45:03;5.93;;;2.73;;
6346;SDS011;3206;42.666;23.600;2024-01-06T08:47:30;2.87;;;2.07;;
6346;SDS011;3206;42.666;23.600;2024-01-06T08:49:57;2.87;;;2.67;;
6346;SDS011;3206;42.666;23.600;2024-01-06T08:52:24;3.37;;;3.17;;
6346;SDS011;3206;42.666;23.600;2024-01-06T08:54:50;3.07;;;2.83;;
6346;SDS011;3206;42.666;23.600;2024-01-06T08:57:18;1.87;;;1.77;;
6346;SDS011;3206;42.666;23.600;2024-01-06T08:59:45;2.77;;;2.47;;
6346;SDS011;3206;42.666;23.600;2024-01-06T09:02:11;4.77;;;3.17;;
6346;SDS011;3206;42.666;23.600;2024-01-06T09:04:38;3.70;;;1.90;;
6346;SDS011;3206;42.666;23.600;2024-01-06T09:07:05;1.73;;;1.63;;
6346;SDS011;3206;42.666;23.600;2024-01-06T09:09:31;2.67;;;1.93;;
6346;SDS011;3206;42.666;23.600;2024-01-06T09:11:58;1.33;;;1.30;;
6346;SDS011;3206;42.666;23.600;2024-01-06T09:14:27;3.30;;;2.90;;
6346;SDS011;3206;42.666;23.600;2024-01-06T09:16:53;2.80;;;2.60;;
6346;SDS011;3206;42.666;23.600;2024-01-06T09:19:20;1.10;;;1.10;;
6346;SDS011;3206;42.666;23.600;2024-01-06T09:21:47;1.00;;;1.00;;
6346;SDS011;3206;42.666;23.600;2024-01-06T09:24:13;2.77;;;2.57;;
6346;SDS011;3206;42.666;23.600;2024-01-06T09:26:40;1.77;;;1.53;;
6346;SDS011;3206;42.666;23.600;2024-01-06T09:29:06;1.27;;;1.17;;
6346;SDS011;3206;42.666;23.600;2024-01-06T09:31:34;3.27;;;3.07;;
6346;SDS011;3206;42.666;23.600;2024-01-06T09:34:01;1.70;;;1.60;;
6346;SDS011;3206;42.666;23.600;2024-01-06T09:36:27;4.33;;;3.57;;
6346;SDS011;3206;42.666;23.600;2024-01-06T09:38:54;1.80;;;1.80;;
6346;SDS011;3206;42.666;23.600;2024-01-06T09:41:21;2.40;;;2.30;;
6346;SDS011;3206;42.666;23.600;2024-01-06T09:43:48;2.53;;;1.83;;
6346;SDS011;3206;42.666;23.600;2024-01-06T09:46:15;2.30;;;2.17;;
6346;SDS011;3206;42.666;23.600;2024-01-06T09:48:44;2.83;;;2.63;;
6346;SDS011;3206;42.666;23.600;2024-01-06T09:51:11;3.73;;;2.43;;
6346;SDS011;3206;42.666;23.600;2024-01-06T09:53:40;3.07;;;2.77;;
6346;SDS011;3206;42.666;23.600;2024-01-06T09:56:07;1.67;;;1.57;;
6346;SDS011;3206;42.666;23.600;2024-01-06T09:58:34;4.47;;;2.90;;
6346;SDS011;3206;42.666;23.600;2024-01-06T10:01:02;1.93;;;1.83;;
6346;SDS011;3206;42.666;23.600;2024-01-06T10:03:29;1.70;;;1.60;;
6346;SDS011;3206;42.666;23.600;2024-01-06T10:05:57;2.53;;;2.43;;
6346;SDS011;3206;42.666;23.600;2024-01-06T10:08:28;2.67;;;2.47;;
6346;SDS011;3206;42.666;23.600;2024-01-06T10:10:55;5.50;;;4.05;;
6346;SDS011;3206;42.666;23.600;2024-01-06T10:13:22;10.10;;;5.53;;
6346;SDS011;3206;42.666;23.600;2024-01-06T10:15:49;4.67;;;2.93;;
6346;SDS011;3206;42.666;23.600;2024-01-06T10:18:15;3.17;;;2.97;;
6346;SDS011;3206;42.666;23.600;2024-01-06T10:20:43;2.27;;;2.17;;
6346;SDS011;3206;42.666;23.600;2024-01-06T10:23:11;2.17;;;2.07;;
6346;SDS011;3206;42.666;23.600;2024-01-06T10:25:39;3.47;;;2.77;;
6346;SDS011;3206;42.666;23.600;2024-01-06T10:28:10;4.10;;;2.93;;
6346;SDS011;3206;42.666;23.600;2024-01-06T10:30:37;3.93;;;2.40;;
6346;SDS011;3206;42.666;23.600;2024-01-06T10:33:07;3.33;;;3.00;;
6346;SDS011;3206;42.666;23.600;2024-01-06T10:35:34;4.70;;;3.77;;
6346;SDS011;3206;42.666;23.600;2024-01-06T10:38:01;5.40;;;3.97;;
6346;SDS011;3206;42.666;23.600;2024-01-06T10:40:30;2.63;;;2.53;;
6346;SDS011;3206;42.666;23.600;2024-01-06T10:42:56;3.07;;;2.87;;
6346;SDS011;3206;42.666;23.600;2024-01-06T10:45:23;2.77;;;2.50;;
6346;SDS011;3206;42.666;23.600;2024-01-06T10:47:49;8.43;;;3.40;;
6346;SDS011;3206;42.666;23.600;2024-01-06T10:50:16;3.77;;;2.60;;
6346;SDS011;3206;42.666;23.600;2024-01-06T10:52:43;2.93;;;2.70;;
6346;SDS011;3206;42.666;23.600;2024-01-06T10:55:09;3.47;;;2.53;;
6346;SDS011;3206;42.666;23.600;2024-01-06T10:57:37;1.97;;;1.87;;
6346;SDS011;3206;42.666;23.600;2024-01-06T11:00:06;2.23;;;2.03;;
6346;SDS011;3206;42.666;23.600;2024-01-06T11:02:35;1.67;;;1.60;;
6346;SDS011;3206;42.666;23.600;2024-01-06T11:05:01;2.23;;;2.13;;
6346;SDS011;3206;42.666;23.600;2024-01-06T11:07:28;3.07;;;2.60;;
6346;SDS011;3206;42.666;23.600;2024-01-06T11:09:56;1.67;;;1.57;;
6346;SDS011;3206;42.666;23.600;2024-01-06T11:12:24;1.20;;;1.20;;
6346;SDS011;3206;42.666;23.600;2024-01-06T11:14:52;1.83;;;1.73;;
6346;SDS011;3206;42.666;23.600;2024-01-06T11:20:04;1.33;;;1.33;;
6346;SDS011;3206;42.666;23.600;2024-01-06T11:22:31;2.67;;;2.47;;
6346;SDS011;3206;42.666;23.600;2024-01-06T11:25:03;5.27;;;2.40;;
6346;SDS011;3206;42.666;23.600;2024-01-06T11:27:30;5.80;;;3.87;;
6346;SDS011;3206;42.666;23.600;2024-01-06T11:29:58;4.73;;;2.93;;
6346;SDS011;3206;42.666;23.600;2024-01-06T11:32:29;3.43;;;2.90;;
6346;SDS011;3206;42.666;23.600;2024-01-06T11:35:04;2.90;;;2.17;;
6346;SDS011;3206;42.666;23.600;2024-01-06T11:37:34;3.17;;;2.30;;
6346;SDS011;3206;42.666;23.600;2024-01-06T11:40:02;2.90;;;1.27;;
6346;SDS011;3206;42.666;23.600;2024-01-06T11:42:31;1.17;;;1.17;;
6346;SDS011;3206;42.666;23.600;2024-01-06T11:45:02;2.20;;;1.20;;
6346;SDS011;3206;42.666;23.600;2024-01-06T11:47:30;0.67;;;0.67;;
6346;SDS011;3206;42.666;23.600;2024-01-06T11:49:57;0.70;;;0.70;;
6346;SDS011;3206;42.666;23.600;2024-01-06T11:52:25;0.83;;;0.83;;
6346;SDS011;3206;42.666;23.600;2024-01-06T11:54:52;1.63;;;1.63;;
6346;SDS011;3206;42.666;23.600;2024-01-06T11:57:19;0.60;;;0.60;;
6346;SDS011;3206;42.666;23.600;2024-01-06T11:59:46;2.23;;;1.37;;
6346;SDS011;3206;42.666;23.600;2024-01-06T12:02:14;20.07;;;1.20;;
6346;SDS011;3206;42.666;23.600;2024-01-06T12:04:42;1.43;;;1.30;;
6346;SDS011;3206;42.666;23.600;2024-01-06T12:07:09;1.90;;;1.80;;
6346;SDS011;3206;42.666;23.600;2024-01-06T12:09:38;1.33;;;1.07;;
6346;SDS011;3206;42.666;23.600;2024-01-06T12:12:05;1.53;;;1.47;;
6346;SDS011;3206;42.666;23.600;2024-01-06T12:14:32;1.67;;;1.57;;
6346;SDS011;3206;42.666;23.600;2024-01-06T12:16:58;2.07;;;1.30;;
6346;SDS011;3206;42.666;23.600;2024-01-06T12:19:29;1.70;;;1.60;;
6346;SDS011;3206;42.666;23.600;2024-01-06T12:21:56;2.77;;;2.00;;
6346;SDS011;3206;42.666;23.600;2024-01-06T12:24:22;2.70;;;1.70;;
6346;SDS011;3206;42.666;23.600;2024-01-06T12:26:49;2.10;;;1.70;;
6346;SDS011;3206;42.666;23.600;2024-01-06T12:29:16;1.50;;;1.40;;
6346;SDS011;3206;42.666;23.600;2024-01-06T12:31:43;2.70;;;1.77;;
6346;SDS011;3206;42.666;23.600;2024-01-06T12:34:10;1.90;;;1.70;;
6346;SDS011;3206;42.666;23.600;2024-01-06T12:36:39;7.47;;;2.50;;
6346;SDS011;3206;42.666;23.600;2024-01-06T12:39:06;1.70;;;1.60;;
6346;SDS011;3206;42.666;23.600;2024-01-06T12:41:38;1.37;;;1.27;;
6346;SDS011;3206;42.666;23.600;2024-01-06T12:44:04;1.37;;;1.27;;
6346;SDS011;3206;42.666;23.600;2024-01-06T12:46:32;7.80;;;2.77;;
6346;SDS011;3206;42.666;23.600;2024-01-06T12:48:59;2.13;;;1.47;;
6346;SDS011;3206;42.666;23.600;2024-01-06T12:51:26;3.57;;;1.73;;
6346;SDS011;3206;42.666;23.600;2024-01-06T12:53:54;1.27;;;1.27;;
6346;SDS011;3206;42.666;23.600;2024-01-06T12:56:20;2.73;;;1.77;;
6346;SDS011;3206;42.666;23.600;2024-01-06T12:58:47;1.73;;;1.63;;
6346;SDS011;3206;42.666;23.600;2024-01-06T13:01:14;3.40;;;3.10;;
6346;SDS011;3206;42.666;23.600;2024-01-06T13:03:40;1.30;;;1.13;;
6346;SDS011;3206;42.666;23.600;2024-01-06T13:06:07;4.40;;;1.57;;
6346;SDS011;3206;42.666;23.600;2024-01-06T13:08:34;1.07;;;1.07;;
6346;SDS011;3206;42.666;23.600;2024-01-06T13:11:02;0.63;;;0.63;;
6346;SDS011;3206;42.666;23.600;2024-01-06T13:13:29;0.80;;;0.80;;
6346;SDS011;3206;42.666;23.600;2024-01-06T13:15:56;0.70;;;0.70;;
6346;SDS011;3206;42.666;23.600;2024-01-06T13:18:23;1.03;;;1.03;;
6346;SDS011;3206;42.666;23.600;2024-01-06T13:20:49;1.10;;;1.03;;
6346;SDS011;3206;42.666;23.600;2024-01-06T13:23:16;1.07;;;0.90;;
6346;SDS011;3206;42.666;23.600;2024-01-06T13:25:43;0.40;;;0.40;;
6346;SDS011;3206;42.666;23.600;2024-01-06T13:28:11;0.70;;;0.70;;
6346;SDS011;3206;42.666;23.600;2024-01-06T13:30:37;1.47;;;1.47;;
6346;SDS011;3206;42.666;23.600;2024-01-06T13:33:04;0.90;;;0.90;;
6346;SDS011;3206;42.666;23.600;2024-01-06T13:35:31;0.77;;;0.70;;
6346;SDS011;3206;42.666;23.600;2024-01-06T13:37:58;0.50;;;0.50;;
6346;SDS011;3206;42.666;23.600;2024-01-06T13:40:25;0.60;;;0.60;;
6346;SDS011;3206;42.666;23.600;2024-01-06T13:42:52;0.40;;;0.40;;
6346;SDS011;3206;42.666;23.600;2024-01-06T13:45:20;0.77;;;0.73;;
6346;SDS011;3206;42.666;23.600;2024-01-06T13:47:47;1.33;;;0.83;;
6346;SDS011;3206;42.666;23.600;2024-01-06T13:50:14;1.20;;;1.07;;
6346;SDS011;3206;42.666;23.600;2024-01-06T13:52:41;1.17;;;1.13;;
6346;SDS011;3206;42.666;23.600;2024-01-06T13:55:08;0.80;;;0.80;;
6346;SDS011;3206;42.666;23.600;2024-01-06T13:57:35;1.10;;;1.00;;
6346;SDS011;3206;42.666;23.600;2024-01-06T14:00:02;0.93;;;0.80;;
6346;SDS011;3206;42.666;23.600;2024-01-06T14:02:31;0.63;;;0.63;;
6346;SDS011;3206;42.666;23.600;2024-01-06T14:04:57;1.43;;;1.30;;
6346;SDS011;3206;42.666;23.600;2024-01-06T14:07:24;1.60;;;1.30;;
6346;SDS011;3206;42.666;23.600;2024-01-06T14:09:51;1.80;;;1.67;;
6346;SDS011;3206;42.666;23.600;2024-01-06T14:12:17;3.20;;;1.83;;
6346;SDS011;3206;42.666;23.600;2024-01-06T14:14:44;4.23;;;1.33;;
6346;SDS011;3206;42.666;23.600;2024-01-06T14:17:11;2.97;;;1.77;;
6346;SDS011;3206;42.666;23.600;2024-01-06T14:19:39;0.80;;;0.80;;
6346;SDS011;3206;42.666;23.600;2024-01-06T14:22:05;7.60;;;2.00;;
6346;SDS011;3206;42.666;23.600;2024-01-06T14:24:32;1.27;;;1.17;;
6346;SDS011;3206;42.666;23.600;2024-01-06T14:26:58;1.33;;;0.90;;
6346;SDS011;3206;42.666;23.600;2024-01-06T14:29:25;1.63;;;1.50;;
6346;SDS011;3206;42.666;23.600;2024-01-06T14:31:52;4.20;;;2.77;;
6346;SDS011;3206;42.666;23.600;2024-01-06T14:34:18;2.83;;;1.83;;
6346;SDS011;3206;42.666;23.600;2024-01-06T14:36:46;1.50;;;1.40;;
6346;SDS011;3206;42.666;23.600;2024-01-06T14:39:13;4.17;;;1.87;;
6346;SDS011;3206;42.666;23.600;2024-01-06T14:41:40;2.23;;;2.00;;
6346;SDS011;3206;42.666;23.600;2024-01-06T14:44:07;1.77;;;1.30;;
6346;SDS011;3206;42.666;23.600;2024-01-06T14:46:34;1.40;;;1.30;;
6346;SDS011;3206;42.666;23.600;2024-01-06T14:49:02;1.07;;;1.03;;
6346;SDS011;3206;42.666;23.600;2024-01-06T14:51:29;7.80;;;1.93;;
6346;SDS011;3206;42.666;23.600;2024-01-06T14:53:57;3.43;;;2.60;;
6346;SDS011;3206;42.666;23.600;2024-01-06T14:56:23;3.33;;;3.03;;
6346;SDS011;3206;42.666;23.600;2024-01-06T14:58:51;1.63;;;1.53;;
6346;SDS011;3206;42.666;23.600;2024-01-06T15:01:17;3.90;;;1.93;;